Time;durP1;ratioP1;P1;durP2;ratioP2;P2;SDS_P1;SDS_P2;PMS_P1;PMS_P2;Temp;Humidity;BMP_temperature;BMP_pressure;BME280_temperature;BME280_humidity;BME280_pressure;Samples;Min_cycle;Max_cycle;Signal;HPM_P1;HPM_P2
2022/04/16 00:00:00;;;;;;;19.25;12.85;;;359.00;2329.60;;;;;;5017868;28;20469;-81
2022/04/16 00:02:29;;;;;;;21.13;13.10;;;358.90;2329.60;;;;;;5016934;28;20052;-81
2022/04/16 00:04:54;;;;;;;21.45;11.80;;;358.80;2329.60;;;;;;5017414;28;20026;-81
2022/04/16 00:07:20;;;;;;;20.60;13.35;;;358.80;2329.60;;;;;;5017534;28;20087;-81
2022/04/16 00:09:46;;;;;;;23.70;13.52;;;358.70;2329.60;;;;;;5017462;28;20026;-81
2022/04/16 00:12:11;;;;;;;20.75;12.70;;;358.70;2329.60;;;;;;5017266;28;20120;-81
2022/04/16 00:14:38;;;;;;;18.60;11.77;;;358.70;2329.60;;;;;;5017471;28;20479;-81
2022/04/16 00:17:04;;;;;;;22.15;12.95;;;358.80;2329.60;;;;;;5017096;28;20033;-80
2022/04/16 00:19:32;;;;;;;18.33;11.63;;;358.80;2329.60;;;;;;5017377;28;20043;-81
2022/04/16 00:22:00;;;;;;;20.65;11.63;;;358.80;2329.60;;;;;;5017416;28;20022;-80
2022/04/16 00:24:29;;;;;;;18.98;12.77;;;358.60;2329.60;;;;;;5017135;28;20025;-81
2022/04/16 00:26:55;;;;;;;19.27;12.40;;;358.60;2329.60;;;;;;5017220;28;20397;-81
2022/04/16 00:29:21;;;;;;;22.20;11.65;;;358.60;2329.60;;;;;;5034409;28;20147;-80
2022/04/16 00:31:47;;;;;;;19.90;12.27;;;358.60;2329.60;;;;;;5017039;28;20485;-81
2022/04/16 00:34:14;;;;;;;18.67;11.23;;;358.60;2329.60;;;;;;5016635;28;20057;-81
2022/04/16 00:36:42;;;;;;;19.13;11.30;;;358.60;2329.60;;;;;;5034739;28;20032;-81
2022/04/16 00:39:08;;;;;;;17.48;11.10;;;358.40;2329.60;;;;;;5016796;28;20025;-81
2022/04/16 00:41:34;;;;;;;18.42;11.23;;;358.40;2329.60;;;;;;5016770;28;20025;-81
2022/04/16 00:44:00;;;;;;;19.65;10.90;;;358.40;2329.60;;;;;;5016733;28;20021;-81
2022/04/16 00:46:26;;;;;;;18.23;11.18;;;358.40;2329.60;;;;;;5016914;28;20033;-81
2022/04/16 00:48:51;;;;;;;17.55;10.65;;;333.70;2329.60;;;;;;5016433;28;20493;-81
2022/04/16 00:51:17;;;;;;;18.52;11.85;;;333.70;2329.60;;;;;;5016416;28;20053;-81
2022/04/16 00:53:43;;;;;;;18.90;12.52;;;358.40;2329.60;;;;;;5016756;28;20026;-80
2022/04/16 00:56:12;;;;;;;20.13;12.57;;;358.40;2329.60;;;;;;5016097;28;20124;-81
2022/04/16 00:58:42;;;;;;;23.90;13.10;;;358.40;2329.60;;;;;;5016132;28;20440;-81
2022/04/16 01:01:08;;;;;;;18.48;12.48;;;333.70;2329.60;;;;;;5016529;28;20034;-81
2022/04/16 01:03:35;;;;;;;19.35;12.95;;;333.70;2329.60;;;;;;5016636;28;20022;-81
2022/04/16 01:06:01;;;;;;;18.08;13.43;;;358.50;2329.60;;;;;;5016345;28;20481;-80
2022/04/16 01:08:26;;;;;;;24.35;14.85;;;358.40;2329.60;;;;;;5016339;28;20528;-81
2022/04/16 01:10:52;;;;;;;21.17;14.20;;;358.40;2329.60;;;;;;5034165;28;20026;-81
2022/04/16 01:13:18;;;;;;;20.38;13.32;;;358.40;2329.60;;;;;;5016033;28;20028;-81
2022/04/16 01:15:44;;;;;;;21.55;13.55;;;358.40;2329.60;;;;;;5016505;28;20025;-81
2022/04/16 01:18:12;;;;;;;22.30;13.88;;;358.40;2329.60;;;;;;5016269;28;20037;-81
2022/04/16 01:20:41;;;;;;;20.52;13.48;;;358.40;2329.60;;;;;;5016040;28;20116;-81
2022/04/16 01:23:07;;;;;;;20.48;13.55;;;333.70;2329.60;;;;;;5015607;28;20378;-81
2022/04/16 01:25:35;;;;;;;22.08;13.23;;;333.50;2329.60;;;;;;5016391;28;20072;-81
2022/04/16 01:28:01;;;;;;;23.95;14.05;;;333.70;2329.60;;;;;;5033268;28;20413;-81
2022/04/16 01:30:28;;;;;;;17.42;12.43;;;333.60;2329.60;;;;;;5015923;28;20363;-81
2022/04/16 01:32:54;;;;;;;24.10;13.85;;;333.60;2329.60;;;;;;5016197;28;20649;-81
2022/04/16 01:35:20;;;;;;;21.70;12.57;;;333.70;2329.60;;;;;;5016097;28;20033;-81
2022/04/16 01:37:46;;;;;;;19.13;12.40;;;333.70;2329.60;;;;;;5016129;28;20112;-81
2022/04/16 01:40:14;;;;;;;18.83;12.65;;;333.70;2329.60;;;;;;5015491;28;20029;-80
2022/04/16 01:42:42;;;;;;;19.48;12.30;;;333.70;2329.60;;;;;;5015785;28;20036;-81
2022/04/16 01:45:09;;;;;;;19.45;13.40;;;333.70;2329.60;;;;;;5015773;28;20030;-81
2022/04/16 01:47:36;;;;;;;20.25;13.45;;;333.70;2329.60;;;;;;5015705;28;20025;-81
2022/04/16 01:50:07;;;;;;;26.67;12.57;;;333.60;2329.60;;;;;;5015250;28;20132;-81
2022/04/16 01:52:34;;;;;;;22.95;13.73;;;333.50;2329.60;;;;;;5015465;28;20018;-81
2022/04/16 01:55:00;;;;;;;19.58;12.63;;;333.60;2329.60;;;;;;5015849;28;20030;-80
2022/04/16 01:57:26;;;;;;;20.13;13.15;;;333.50;2329.60;;;;;;5015745;28;20025;-81
2022/04/16 01:59:52;;;;;;;26.05;15.27;;;333.40;2329.60;;;;;;5033988;28;20022;-79
2022/04/16 02:02:19;;;;;;;20.42;14.05;;;333.30;2329.60;;;;;;5040110;28;20044;-80
2022/04/16 02:04:45;;;;;;;20.95;13.75;;;333.30;2329.60;;;;;;5031224;28;20116;-81
2022/04/16 02:07:11;;;;;;;22.83;12.98;;;333.40;2329.60;;;;;;5032878;28;20500;-81
2022/04/16 02:09:37;;;;;;;20.27;13.57;;;333.30;2329.60;;;;;;5014434;28;20037;-80
2022/04/16 02:12:03;;;;;;;21.60;14.93;;;333.30;2329.60;;;;;;5032596;28;20494;-80
2022/04/16 02:14:29;;;;;;;20.92;13.55;;;333.30;2329.60;;;;;;5015564;28;20033;-80
2022/04/16 02:16:57;;;;;;;28.10;15.00;;;333.30;2329.60;;;;;;5015664;28;20030;-80
2022/04/16 02:19:23;;;;;;;22.83;14.10;;;333.20;2329.60;;;;;;5015145;28;20036;-81
2022/04/16 02:21:49;;;;;;;22.33;15.18;;;333.20;2329.60;;;;;;5033023;28;20021;-81
2022/04/16 02:24:17;;;;;;;27.27;14.68;;;333.10;2329.60;;;;;;5015065;28;20021;-80
2022/04/16 02:26:44;;;;;;;25.77;14.93;;;333.10;2329.60;;;;;;5015490;28;20025;-81
2022/04/16 02:29:10;;;;;;;24.70;15.35;;;333.00;2329.60;;;;;;5015306;28;20098;-81
2022/04/16 02:31:37;;;;;;;19.48;14.98;;;332.90;2329.60;;;;;;5015240;28;20061;-81
2022/04/16 02:34:07;;;;;;;20.20;15.45;;;332.80;2329.60;;;;;;5015448;28;20025;-81
2022/04/16 02:36:33;;;;;;;22.88;15.55;;;332.80;2329.60;;;;;;5032569;28;20073;-80
2022/04/16 02:38:59;;;;;;;23.27;15.38;;;308.10;2304.00;;;;;;5015311;28;20056;-81
2022/04/16 02:41:25;;;;;;;22.83;15.75;;;308.10;2304.00;;;;;;5015214;28;20049;-82
2022/04/16 02:43:54;;;;;;;20.55;14.93;;;308.10;2304.00;;;;;;5015170;28;20026;-81
2022/04/16 02:49:07;;;;;;;24.10;15.63;;;308.00;2304.00;;;;;;5032888;28;20099;-81
2022/04/16 02:51:33;;;;;;;26.60;15.35;;;308.00;2304.00;;;;;;5015161;28;20040;-81
2022/04/16 02:53:59;;;;;;;24.83;16.52;;;307.90;2304.00;;;;;;5014942;28;20112;-81
2022/04/16 02:56:24;;;;;;;23.25;16.20;;;308.00;2304.00;;;;;;5015375;28;20021;-81
2022/04/16 02:58:50;;;;;;;24.58;15.27;;;308.00;2304.00;;;;;;5015091;28;20037;-80
2022/04/16 03:01:16;;;;;;;20.92;15.52;;;308.00;2304.00;;;;;;5015025;28;20044;-81
2022/04/16 03:03:42;;;;;;;23.63;14.88;;;308.10;2304.00;;;;;;5015193;28;20053;-81
2022/04/16 03:06:08;;;;;;;22.65;15.45;;;308.00;2304.00;;;;;;5015045;28;20033;-81
2022/04/16 03:08:34;;;;;;;23.85;14.70;;;308.10;2304.00;;;;;;5014677;28;20026;-82
2022/04/16 03:11:00;;;;;;;24.00;13.85;;;332.80;2329.60;;;;;;5015068;28;20041;-80
2022/04/16 03:13:26;;;;;;;23.17;14.18;;;332.80;2329.60;;;;;;5014480;28;20449;-81
2022/04/16 03:18:37;;;;;;;20.63;13.00;;;332.90;2329.60;;;;;;5032571;28;20037;-80
2022/04/16 03:21:03;;;;;;;22.02;13.35;;;332.90;2329.60;;;;;;5014644;28;20028;-78
2022/04/16 03:23:29;;;;;;;21.58;14.35;;;333.10;2329.60;;;;;;5035386;28;20048;-78
2022/04/16 03:26:00;;;;;;;19.08;12.82;;;333.10;2329.60;;;;;;5000936;28;20489;-81
2022/04/16 03:28:26;;;;;;;20.25;14.18;;;333.10;2329.60;;;;;;5018110;28;20113;-81
2022/04/16 03:30:53;;;;;;;22.23;13.00;;;333.10;2329.60;;;;;;5017836;28;20040;-81
2022/04/16 03:33:19;;;;;;;22.73;14.30;;;333.10;2329.60;;;;;;5017799;28;20025;-81
2022/04/16 03:35:45;;;;;;;19.58;13.18;;;333.10;2329.60;;;;;;5018069;28;20060;-81
2022/04/16 03:38:11;;;;;;;22.80;13.82;;;333.20;2329.60;;;;;;5018000;28;20061;-81
2022/04/16 03:40:38;;;;;;;20.67;13.32;;;333.10;2329.60;;;;;;5017608;28;20068;-80
2022/04/16 03:43:04;;;;;;;21.13;13.80;;;333.10;2329.60;;;;;;5017277;28;20469;-81
2022/04/16 03:45:34;;;;;;;17.35;11.88;;;333.10;2329.60;;;;;;5018153;28;20028;-81
2022/04/16 03:48:02;;;;;;;17.73;12.27;;;333.10;2329.60;;;;;;5017696;28;20047;-81
2022/04/16 03:50:29;;;;;;;21.33;12.55;;;333.10;2329.60;;;;;;5035551;28;20045;-81
2022/04/16 03:52:56;;;;;;;19.70;11.95;;;333.00;2329.60;;;;;;5017081;28;20041;-81
2022/04/16 04:00:58;;;;;;;23.03;12.13;;;333.00;2329.60;;;;;;5035926;28;20435;-81
2022/04/16 04:03:24;;;;;;;19.52;12.95;;;333.00;2329.60;;;;;;5017562;28;20274;-81
2022/04/16 04:05:53;;;;;;;15.27;11.38;;;332.90;2329.60;;;;;;5017537;28;20028;-81
2022/04/16 04:08:20;;;;;;;18.63;12.63;;;332.90;2329.60;;;;;;5017024;28;20038;-81
2022/04/16 04:10:46;;;;;;;19.58;12.68;;;332.90;2329.60;;;;;;5035107;28;20037;-81
2022/04/16 04:13:13;;;;;;;17.35;12.25;;;332.90;2329.60;;;;;;5016736;28;20026;-83
2022/04/16 04:15:42;;;;;;;17.73;12.13;;;332.90;2329.60;;;;;;5017637;28;20059;-82
2022/04/16 04:18:08;;;;;;;18.92;12.40;;;332.90;2329.60;;;;;;5001636;28;20137;-81
2022/04/16 04:20:37;;;;;;;21.20;12.07;;;332.90;2329.60;;;;;;5017115;28;20557;-81
2022/04/16 04:23:03;;;;;;;18.05;12.13;;;332.90;2329.60;;;;;;5017160;28;20072;-81
2022/04/16 04:25:29;;;;;;;19.40;12.10;;;308.10;2304.00;;;;;;5016940;28;20109;-81
2022/04/16 04:27:55;;;;;;;15.75;12.60;;;308.10;2304.00;;;;;;5017295;28;20026;-81
2022/04/16 04:30:22;;;;;;;25.42;12.68;;;308.10;2304.00;;;;;;5017154;28;20539;-81
2022/04/16 04:32:47;;;;;;;18.63;12.48;;;308.00;2304.00;;;;;;5016487;28;20032;-81
2022/04/16 04:35:14;;;;;;;19.75;12.93;;;332.80;2329.60;;;;;;5015751;28;20029;-81
2022/04/16 04:37:39;;;;;;;19.10;11.68;;;332.90;2329.60;;;;;;5016919;28;20025;-81
2022/04/16 04:40:06;;;;;;;17.90;12.55;;;333.00;2329.60;;;;;;5015646;28;20096;-81
2022/04/16 04:42:33;;;;;;;19.25;12.73;;;332.90;2329.60;;;;;;5016562;28;20029;-82
2022/04/16 04:45:05;;;;;;;19.33;12.70;;;332.90;2329.60;;;;;;5016943;28;20021;-82
2022/04/16 04:47:31;;;;;;;18.42;11.93;;;332.90;2329.60;;;;;;5016589;28;20462;-81
2022/04/16 04:49:57;;;;;;;20.13;12.77;;;333.10;2329.60;;;;;;5016546;28;20058;-81
2022/04/16 04:52:26;;;;;;;21.70;13.50;;;333.00;2329.60;;;;;;5016740;28;20410;-82
2022/04/16 04:55:00;;;;;;;17.27;12.93;;;333.10;2329.60;;;;;;5034266;28;20096;-81
2022/04/16 04:57:26;;;;;;;19.27;12.30;;;333.10;2329.60;;;;;;5034155;28;20401;-81
2022/04/16 04:59:52;;;;;;;22.65;13.43;;;332.90;2329.60;;;;;;5016338;28;20026;-82
2022/04/16 05:02:18;;;;;;;20.38;12.63;;;332.90;2329.60;;;;;;5016851;28;20207;-82
2022/04/16 05:04:45;;;;;;;16.90;11.55;;;332.90;2329.60;;;;;;5033997;28;20493;-81
2022/04/16 05:07:10;;;;;;;16.05;12.10;;;332.90;2329.60;;;;;;5033985;28;20036;-81
2022/04/16 05:09:36;;;;;;;18.95;13.38;;;333.00;2329.60;;;;;;5015661;28;20393;-81
2022/04/16 05:12:03;;;;;;;18.80;11.95;;;333.10;2329.60;;;;;;5015447;28;20485;-81
2022/04/16 05:14:29;;;;;;;20.48;13.80;;;332.90;2329.60;;;;;;5033483;28;20228;-81
2022/04/16 05:16:54;;;;;;;16.90;12.90;;;333.00;2329.60;;;;;;5016354;28;20106;-80
2022/04/16 05:19:20;;;;;;;17.77;12.77;;;333.00;2329.60;;;;;;5015945;28;20084;-81
2022/04/16 05:21:46;;;;;;;16.75;11.68;;;333.10;2329.60;;;;;;5016336;28;20474;-81
2022/04/16 05:24:12;;;;;;;20.30;12.73;;;333.10;2329.60;;;;;;5015809;28;20125;-81
2022/04/16 05:26:38;;;;;;;19.15;12.63;;;333.10;2329.60;;;;;;5016026;28;20207;-81
2022/04/16 05:29:05;;;;;;;18.17;12.43;;;333.20;2329.60;;;;;;5015474;28;20087;-81
2022/04/16 05:31:31;;;;;;;19.13;12.85;;;333.30;2329.60;;;;;;5016237;28;20041;-81
2022/04/16 05:36:52;;;;;;;19.35;12.98;;;333.30;2329.60;;;;;;4972607;28;20081;-81
2022/04/16 05:39:18;;;;;;;20.10;13.38;;;333.30;2329.60;;;;;;4972492;28;20133;-81
2022/04/16 05:41:44;;;;;;;18.75;13.20;;;333.30;2329.60;;;;;;4956490;28;20057;-81
2022/04/16 05:44:10;;;;;;;20.90;14.15;;;333.30;2329.60;;;;;;4972866;28;20027;-80
2022/04/16 05:46:36;;;;;;;20.15;12.73;;;333.30;2329.60;;;;;;4956860;28;20054;-81
2022/04/16 05:49:02;;;;;;;23.77;13.60;;;333.30;2329.60;;;;;;4956528;28;20042;-81
2022/04/16 05:51:28;;;;;;;18.90;12.27;;;333.30;2329.60;;;;;;4979616;28;20116;-79
2022/04/16 05:53:54;;;;;;;18.35;13.30;;;333.40;2329.60;;;;;;4995291;28;20106;-79
2022/04/16 05:56:21;;;;;;;16.95;11.82;;;333.50;2329.60;;;;;;4996013;28;20143;-78
2022/04/16 05:58:47;;;;;;;16.10;11.38;;;333.50;2329.60;;;;;;4966004;28;20069;-80
2022/04/16 06:01:13;;;;;;;14.60;10.23;;;333.60;2329.60;;;;;;4972423;28;20031;-80
2022/04/16 06:03:40;;;;;;;17.98;11.70;;;333.60;2329.60;;;;;;4972065;28;20019;-81
2022/04/16 06:06:14;;;;;;;20.98;9.93;;;333.40;2329.60;;;;;;4972049;28;20050;-81
2022/04/16 06:08:40;;;;;;;12.15;8.20;;;333.60;2329.60;;;;;;4972576;28;20023;-80
2022/04/16 06:11:06;;;;;;;13.15;9.68;;;333.70;2329.60;;;;;;4972265;28;20042;-81
2022/04/16 06:13:32;;;;;;;12.05;8.70;;;333.70;2329.60;;;;;;4988006;28;20038;-80
2022/04/16 06:15:59;;;;;;;14.82;8.65;;;333.70;2329.60;;;;;;4995326;28;20045;-81
2022/04/16 06:18:25;;;;;;;12.10;9.07;;;333.70;2329.60;;;;;;5012247;28;20030;-81
2022/04/16 06:20:50;;;;;;;15.60;9.52;;;333.70;2329.60;;;;;;5012692;28;20030;-80
2022/04/16 06:23:20;;;;;;;12.60;9.13;;;333.70;2329.60;;;;;;5012652;28;20025;-80
2022/04/16 06:25:45;;;;;;;14.38;9.57;;;333.70;2329.60;;;;;;5011156;28;20038;-80
2022/04/16 06:28:11;;;;;;;15.52;8.88;;;333.70;2329.60;;;;;;4995307;28;20028;-80
2022/04/16 06:30:37;;;;;;;13.52;9.90;;;333.60;2329.60;;;;;;5012904;28;20026;-79
2022/04/16 06:33:02;;;;;;;17.00;10.35;;;333.70;2329.60;;;;;;5011745;28;20026;-78
2022/04/16 06:35:28;;;;;;;14.10;9.15;;;333.60;2329.60;;;;;;4995102;28;20026;-80
2022/04/16 06:37:54;;;;;;;13.13;9.95;;;333.60;2329.60;;;;;;4994821;28;20474;-80
2022/04/16 06:40:20;;;;;;;17.17;9.20;;;333.60;2329.60;;;;;;4994552;28;20041;-79
2022/04/16 06:42:46;;;;;;;13.57;9.75;;;333.60;2329.60;;;;;;4995070;28;20022;-80
2022/04/16 06:45:12;;;;;;;13.80;10.38;;;333.60;2329.60;;;;;;4994754;28;20492;-78
2022/04/16 06:47:38;;;;;;;13.65;9.43;;;333.60;2329.60;;;;;;5012397;28;20589;-80
2022/04/16 06:50:06;;;;;;;15.15;10.80;;;333.50;2329.60;;;;;;4995075;28;20045;-78
2022/04/16 06:52:32;;;;;;;18.90;10.27;;;333.70;2329.60;;;;;;5011547;28;20144;-80
2022/04/16 06:54:58;;;;;;;16.45;10.05;;;333.60;2329.60;;;;;;5011496;28;20669;-80
2022/04/16 06:57:25;;;;;;;17.23;10.88;;;333.60;2329.60;;;;;;5013075;28;20117;-81
2022/04/16 06:59:51;;;;;;;15.30;10.50;;;333.50;2329.60;;;;;;4998221;28;20098;-77
2022/04/16 07:02:17;;;;;;;17.40;9.75;;;333.40;2329.60;;;;;;4998470;28;20030;-77
2022/04/16 07:04:42;;;;;;;13.20;9.48;;;333.50;2329.60;;;;;;5014505;28;20029;-78
2022/04/16 07:07:08;;;;;;;13.65;10.40;;;333.50;2329.60;;;;;;5014267;28;20055;-80
2022/04/16 07:09:38;;;;;;;12.60;9.38;;;333.50;2329.60;;;;;;5015945;28;20040;-79
2022/04/16 07:12:09;;;;;;;19.90;11.77;;;333.40;2329.60;;;;;;4998090;28;20545;-76
2022/04/16 07:14:39;;;;;;;14.23;9.85;;;333.30;2329.60;;;;;;4998269;28;20025;-77
2022/04/16 07:17:06;;;;;;;16.25;11.40;;;333.40;2329.60;;;;;;4997567;28;20030;-76
2022/04/16 07:19:33;;;;;;;21.15;11.82;;;333.40;2329.60;;;;;;5015462;28;20100;-77
2022/04/16 07:21:59;;;;;;;15.95;10.40;;;333.50;2329.60;;;;;;5015113;28;20057;-78
2022/04/16 07:24:25;;;;;;;15.10;11.00;;;333.60;2329.60;;;;;;5014576;28;20036;-79
2022/04/16 07:26:53;;;;;;;18.55;10.90;;;333.60;2329.60;;;;;;5014099;28;20028;-75
2022/04/16 07:29:20;;;;;;;16.13;11.45;;;333.50;2329.60;;;;;;5014537;28;20037;-80
2022/04/16 07:31:46;;;;;;;17.33;11.15;;;333.70;2329.60;;;;;;5014008;28;20112;-80
2022/04/16 07:34:12;;;;;;;17.10;10.52;;;333.70;2329.60;;;;;;5014437;28;20045;-81
2022/04/16 07:36:37;;;;;;;15.65;10.95;;;333.60;2329.60;;;;;;4998223;28;20028;-79
2022/04/16 07:39:03;;;;;;;16.50;10.95;;;333.70;2329.60;;;;;;5014019;28;20038;-80
2022/04/16 07:41:29;;;;;;;14.55;11.25;;;358.40;2329.60;;;;;;5014148;28;20034;-79
2022/04/16 07:43:55;;;;;;;16.30;11.88;;;358.40;2329.60;;;;;;5013977;28;20041;-80
2022/04/16 07:46:22;;;;;;;16.48;10.55;;;358.40;2329.60;;;;;;5014220;28;20044;-79
2022/04/16 07:48:48;;;;;;;16.70;10.00;;;358.40;2329.60;;;;;;5010283;28;20061;-79
2022/04/16 07:51:14;;;;;;;15.80;10.82;;;358.40;2329.60;;;;;;5010450;28;20398;-79
2022/04/16 07:53:40;;;;;;;16.75;11.20;;;358.50;2329.60;;;;;;4995482;28;20550;-79
2022/04/16 07:56:05;;;;;;;21.40;11.98;;;333.70;2329.60;;;;;;5010528;28;20392;-78
2022/04/16 07:58:31;;;;;;;16.38;11.63;;;358.50;2329.60;;;;;;4993832;28;20462;-77
2022/04/16 08:00:57;;;;;;;18.70;12.20;;;358.80;2329.60;;;;;;4995103;28;20031;-75
2022/04/16 08:03:23;;;;;;;17.30;10.93;;;358.90;2329.60;;;;;;4995181;28;20445;-76
2022/04/16 08:05:48;;;;;;;22.35;13.13;;;359.20;2329.60;;;;;;4994999;28;20426;-77
2022/04/16 08:08:14;;;;;;;17.27;12.23;;;384.10;2329.60;;;;;;5009103;28;20030;-76
2022/04/16 08:10:40;;;;;;;16.08;11.35;;;384.50;2329.60;;;;;;5009877;28;20442;-77
2022/04/16 08:13:07;;;;;;;20.88;11.98;;;384.50;2329.60;;;;;;5010073;28;20537;-76
2022/04/16 08:15:34;;;;;;;20.33;12.77;;;384.50;2329.60;;;;;;5009594;28;20497;-75
2022/04/16 08:18:00;;;;;;;20.42;13.90;;;384.60;2329.60;;;;;;5009869;28;20475;-77
2022/04/16 08:20:25;;;;;;;22.58;12.00;;;384.40;2329.60;;;;;;5009531;28;20026;-75
2022/04/16 08:22:51;;;;;;;25.08;14.77;;;384.50;2329.60;;;;;;5009317;28;20038;-76
2022/04/16 08:27:47;;;;;;;28.63;17.75;;;384.40;2329.60;;;;;;4994301;28;20375;-75
2022/04/16 08:30:15;;;;;;;21.10;12.27;;;384.40;2329.60;;;;;;5026337;28;20022;-76
2022/04/16 08:32:42;;;;;;;21.42;13.23;;;384.60;2329.60;;;;;;5013536;28;20034;-76
2022/04/16 08:35:10;;;;;;;19.77;12.98;;;384.90;2329.60;;;;;;5013773;28;20018;-77
2022/04/16 08:37:36;;;;;;;17.15;11.77;;;384.80;2329.60;;;;;;5013949;28;20030;-78
2022/04/16 08:40:03;;;;;;;17.80;11.30;;;384.90;2329.60;;;;;;5013009;28;20033;-79
2022/04/16 08:42:29;;;;;;;19.27;10.45;;;409.60;2329.60;;;;;;5012390;28;20030;-76
2022/04/16 08:44:56;;;;;;;17.13;11.63;;;409.80;2355.20;;;;;;5012564;28;20053;-75
2022/04/16 08:47:23;;;;;;;15.45;10.52;;;410.00;2355.20;;;;;;5013579;28;20049;-75
2022/04/16 08:49:49;;;;;;;15.70;10.57;;;410.20;2278.40;;;;;;5013389;28;20140;-77
2022/04/16 08:52:15;;;;;;;19.85;11.80;;;410.20;2252.80;;;;;;5012148;28;20601;-74
2022/04/16 08:54:41;;;;;;;14.85;9.20;;;410.20;2227.20;;;;;;5011939;28;20367;-76
2022/04/16 08:57:07;;;;;;;17.30;10.93;;;410.20;2227.20;;;;;;5011136;28;20037;-76
2022/04/16 08:59:32;;;;;;;16.25;10.80;;;410.30;2176.00;;;;;;5011201;28;20037;-76
2022/04/16 09:01:59;;;;;;;18.13;9.60;;;410.50;2227.20;;;;;;5013355;28;20022;-74
2022/04/16 09:04:31;;;;;;;15.32;9.63;;;410.50;2124.80;;;;;;5011533;28;20026;-78
2022/04/16 09:06:58;;;;;;;13.02;8.82;;;410.50;2073.60;;;;;;5013061;28;20050;-76
2022/04/16 09:09:24;;;;;;;13.10;9.88;;;435.30;2022.40;;;;;;5011507;28;20133;-76
2022/04/16 09:11:50;;;;;;;16.45;9.75;;;435.40;2048.00;;;;;;5013083;28;20080;-76
2022/04/16 09:14:16;;;;;;;16.10;10.00;;;435.50;2048.00;;;;;;5012010;28;20045;-77
2022/04/16 09:16:43;;;;;;;17.80;10.30;;;435.70;2048.00;;;;;;5013160;28;20051;-75
2022/04/16 09:19:13;;;;;;;16.10;9.80;;;435.80;1996.80;;;;;;5011661;28;20040;-75
2022/04/16 09:21:41;;;;;;;13.98;10.38;;;435.80;1971.20;;;;;;5013256;28;20090;-76
2022/04/16 09:24:06;;;;;;;11.93;9.07;;;435.80;1971.20;;;;;;5013501;28;20046;-76
2022/04/16 09:26:39;;;;;;;11.88;8.48;;;435.90;1945.60;;;;;;5011188;28;20068;-76
2022/04/16 09:29:12;;;;;;;14.90;8.15;;;436.00;1920.00;;;;;;5011643;28;20021;-75
2022/04/16 09:31:39;;;;;;;14.20;9.00;;;460.90;1945.60;;;;;;5009265;28;20033;-74
2022/04/16 09:34:06;;;;;;;16.65;9.45;;;460.90;1894.40;;;;;;5012432;28;20018;-75
2022/04/16 09:36:38;;;;;;;12.07;8.18;;;460.90;1843.20;;;;;;5011544;28;20018;-78
2022/04/16 09:39:06;;;;;;;15.07;7.97;;;461.00;1843.20;;;;;;5011039;28;20034;-75
2022/04/16 09:41:33;;;;;;;17.83;8.50;;;461.00;1843.20;;;;;;5010848;28;20030;-77
2022/04/16 09:44:00;;;;;;;21.95;8.65;;;461.20;1817.60;;;;;;5011465;28;20088;-80
2022/04/16 09:46:30;;;;;;;11.35;8.55;;;461.10;1817.60;;;;;;5021580;28;20077;-78
2022/04/16 09:49:04;;;;;;;13.52;9.20;;;460.90;1817.60;;;;;;5026860;28;20060;-76
2022/04/16 09:51:35;;;;;;;10.57;7.97;;;461.00;1792.00;;;;;;5021096;28;20449;-78
2022/04/16 09:54:05;;;;;;;13.07;8.48;;;461.30;1766.40;;;;;;5011696;28;20046;-79
2022/04/16 09:56:36;;;;;;;12.02;8.25;;;461.50;1766.40;;;;;;5011343;28;20025;-77
2022/04/16 09:59:07;;;;;;;16.98;8.82;;;461.20;1740.80;;;;;;5010850;28;20089;-75
2022/04/16 10:01:33;;;;;;;15.25;8.88;;;460.80;1817.60;;;;;;5012895;28;20370;-76
2022/04/16 10:04:02;;;;;;;13.32;8.10;;;461.10;1817.60;;;;;;5012381;28;20026;-78
2022/04/16 10:06:29;;;;;;;18.70;7.45;;;461.40;1740.80;;;;;;5011585;28;20061;-79
2022/04/16 10:08:56;;;;;;;12.57;8.82;;;486.40;1715.20;;;;;;5011822;28;20025;-78
2022/04/16 10:14:28;;;;;;;12.23;7.72;;;486.60;1689.60;;;;;;5012968;28;20727;-78
2022/04/16 10:17:14;;;;;;;11.52;7.03;;;486.70;1664.00;;;;;;5011757;28;20394;-76
2022/04/16 10:19:45;;;;;;;11.02;7.32;;;461.60;1664.00;;;;;;4933282;29;20087;-76
2022/04/16 10:22:24;;;;;;;10.27;7.03;;;461.20;1689.60;;;;;;4933441;29;20040;-79
2022/04/16 10:24:53;;;;;;;12.98;7.03;;;461.20;1664.00;;;;;;4917141;29;20511;-79
2022/04/16 10:27:25;;;;;;;14.35;6.25;;;461.70;1664.00;;;;;;4915231;29;20032;-79
2022/04/16 10:29:51;;;;;;;11.10;7.97;;;486.50;1638.40;;;;;;4932538;29;20027;-77
2022/04/16 10:32:18;;;;;;;11.63;7.28;;;486.90;1587.20;;;;;;4934560;29;20036;-79
2022/04/16 10:34:45;;;;;;;11.88;7.55;;;487.30;1536.00;;;;;;4937048;29;20024;-78
2022/04/16 10:37:22;;;;;;;9.52;6.35;;;487.20;1561.60;;;;;;4936855;29;20087;-78
2022/04/16 10:39:51;;;;;;;18.60;7.95;;;486.80;1587.20;;;;;;4921490;29;20119;-78
2022/04/16 10:42:16;;;;;;;14.45;7.43;;;487.00;1612.80;;;;;;4920686;29;20028;-83
2022/04/16 10:44:45;;;;;;;13.15;6.60;;;486.60;1587.20;;;;;;4936950;29;20046;-79
2022/04/16 10:47:14;;;;;;;11.80;6.85;;;486.40;1638.40;;;;;;4936754;29;20031;-79
2022/04/16 10:49:41;;;;;;;9.30;6.57;;;486.40;1638.40;;;;;;4920594;29;20095;-80
2022/04/16 10:52:20;;;;;;;10.15;7.30;;;461.60;1638.40;;;;;;4936355;29;20054;-79
2022/04/16 10:54:47;;;;;;;9.38;6.47;;;486.60;1612.80;;;;;;4936725;29;20540;-80
2022/04/16 10:57:21;;;;;;;14.73;7.70;;;487.20;1561.60;;;;;;4992258;28;20034;-80
2022/04/16 10:59:47;;;;;;;33.42;11.23;;;512.00;1536.00;;;;;;5016472;28;20022;-79
2022/04/16 11:02:27;;;;;;;12.88;7.40;;;512.00;1561.60;;;;;;5014704;28;20034;-79
2022/04/16 11:05:03;;;;;;;15.80;6.60;;;512.10;1510.40;;;;;;5014916;28;20121;-78
2022/04/16 11:07:31;;;;;;;11.05;6.43;;;512.30;1433.60;;;;;;5014572;28;20038;-79
2022/04/16 11:09:57;;;;;;;11.55;6.88;;;487.20;1484.80;;;;;;5015906;28;20038;-78
2022/04/16 11:12:23;;;;;;;9.30;6.18;;;486.90;1510.40;;;;;;5014746;28;20034;-79
2022/04/16 11:14:50;;;;;;;7.40;5.90;;;486.60;1561.60;;;;;;5014447;28;20022;-79
2022/04/16 11:17:16;;;;;;;9.35;6.20;;;461.70;1561.60;;;;;;5014616;28;20041;-79
2022/04/16 11:19:44;;;;;;;8.90;5.60;;;486.80;1536.00;;;;;;5014574;28;20030;-79
2022/04/16 11:22:11;;;;;;;9.75;5.85;;;487.30;1484.80;;;;;;5014659;28;20045;-80
2022/04/16 11:24:37;;;;;;;10.23;4.97;;;512.20;1459.20;;;;;;5014185;28;20033;-79
2022/04/16 11:35:29;;;;;;;7.55;5.72;;;512.60;1382.40;;;;;;4973680;28;20110;-79
2022/04/16 11:37:56;;;;;;;10.18;5.82;;;512.20;1433.60;;;;;;4973869;28;20118;-80
2022/04/16 11:40:22;;;;;;;11.10;5.57;;;487.20;1459.20;;;;;;4956988;28;20075;-81
2022/04/16 11:42:49;;;;;;;7.03;5.25;;;486.90;1510.40;;;;;;4954702;28;20475;-78
2022/04/16 11:45:16;;;;;;;8.63;4.53;;;486.60;1484.80;;;;;;4957470;28;20039;-79
2022/04/16 11:47:41;;;;;;;15.90;6.82;;;486.60;1484.80;;;;;;4973651;28;20565;-79
2022/04/16 11:50:10;;;;;;;10.00;6.10;;;486.50;1510.40;;;;;;4956108;28;20043;-79
2022/04/16 11:52:37;;;;;;;18.50;7.32;;;486.40;1536.00;;;;;;4971147;28;20038;-78
2022/04/16 11:55:18;;;;;;;11.07;7.22;;;461.40;1612.80;;;;;;4955230;28;20031;-79
2022/04/16 11:57:54;;;;;;;18.90;6.95;;;461.60;1638.40;;;;;;4972073;28;20070;-77
2022/04/16 12:00:21;;;;;;;10.27;6.95;;;461.40;1664.00;;;;;;4955082;28;20091;-79
2022/04/16 12:02:47;;;;;;;9.43;6.15;;;461.20;1664.00;;;;;;4957267;28;20034;-79
2022/04/16 12:05:26;;;;;;;10.27;6.53;;;461.10;1664.00;;;;;;4956883;28;20035;-78
2022/04/16 12:07:53;;;;;;;10.90;7.25;;;461.10;1664.00;;;;;;4958018;28;20030;-79
2022/04/16 12:10:19;;;;;;;14.68;8.13;;;461.30;1689.60;;;;;;4966970;28;20045;-80
2022/04/16 12:12:48;;;;;;;10.82;6.97;;;461.70;1715.20;;;;;;5006890;28;20029;-78
2022/04/16 12:15:28;;;;;;;15.27;8.20;;;461.40;1715.20;;;;;;5005920;28;20025;-81
2022/04/16 12:17:56;;;;;;;13.57;7.35;;;461.40;1715.20;;;;;;5033983;28;20037;-79
2022/04/16 12:20:22;;;;;;;19.27;9.45;;;461.30;1715.20;;;;;;5034443;28;20021;-77
2022/04/16 12:22:52;;;;;;;12.70;8.15;;;461.50;1715.20;;;;;;5034298;28;20088;-78
2022/04/16 12:25:23;;;;;;;14.48;9.10;;;461.30;1715.20;;;;;;5016831;28;20051;-80
2022/04/16 12:27:54;;;;;;;12.80;8.35;;;461.10;1740.80;;;;;;5016530;28;20029;-79
2022/04/16 12:30:24;;;;;;;17.38;10.23;;;460.90;1766.40;;;;;;5033807;28;20033;-78